Time;durP1;ratioP1;P1;durP2;ratioP2;P2;SDS_P1;SDS_P2;PMS_P1;PMS_P2;Temp;Humidity;BMP_temperature;BMP_pressure;BME280_temperature;BME280_humidity;BME280_pressure;Samples;Min_cycle;Max_cycle;Signal;HPM_P1;HPM_P2
2023/07/18 00:01:17;;;;;;;9.43;2.25;;;12.80;99.90;;;11.75;100.00;101443.47;5032363;28;20121;-68
2023/07/18 00:03:43;;;;;;;;;;;12.80;99.90;;;11.68;100.00;101449.03;5042655;28;20071;-68
2023/07/18 00:06:09;;;;;;;4.90;1.65;;;12.70;99.90;;;11.63;100.00;101450.97;5030547;28;19925;-68
2023/07/18 00:08:36;;;;;;;;;;;12.80;99.90;;;11.61;100.00;101452.81;5011811;28;20120;-68
2023/07/18 00:11:02;;;;;;;6.53;2.05;;;12.70;99.90;;;11.57;100.00;101448.56;5031124;28;19921;-69
2023/07/18 00:13:27;;;;;;;8.27;2.47;;;12.60;99.90;;;11.57;100.00;101451.19;5042081;28;20428;-68
2023/07/18 00:15:53;;;;;;;;;;;12.70;99.90;;;11.54;100.00;101451.34;5030840;28;20486;-69
2023/07/18 00:18:21;;;;;;;6.75;2.08;;;12.60;99.90;;;11.50;100.00;101445.31;5042279;28;20042;-68
2023/07/18 00:20:47;;;;;;;8.82;2.38;;;12.60;99.90;;;11.52;100.00;101445.25;5032429;28;20449;-68
2023/07/18 00:23:13;;;;;;;9.73;2.60;;;12.60;99.90;;;11.54;100.00;101451.34;5028666;28;20064;-69
2023/07/18 00:25:38;;;;;;;6.35;2.45;;;12.60;99.90;;;11.55;100.00;101455.69;5041265;28;20055;-68
2023/07/18 00:28:05;;;;;;;7.85;2.65;;;12.60;99.90;;;11.53;100.00;101457.50;5030623;28;20550;-68
2023/07/18 00:30:31;;;;;;;13.77;2.67;;;12.60;99.90;;;11.54;100.00;101467.16;5029610;28;20227;-69
2023/07/18 00:32:57;;;;;;;8.00;2.70;;;12.60;99.90;;;11.54;100.00;101463.66;5041645;28;20056;-69
2023/07/18 00:35:23;;;;;;;;;;;12.60;99.90;;;11.48;100.00;101465.59;5014878;28;20065;-68
2023/07/18 00:37:49;;;;;;;9.60;3.10;;;12.60;99.90;;;11.45;100.00;101459.63;5042270;28;21081;-69
2023/07/18 00:40:15;;;;;;;15.75;3.33;;;12.50;99.90;;;11.46;100.00;101463.94;5028996;28;20124;-68
2023/07/18 00:42:45;;;;;;;11.02;2.88;;;12.50;99.90;;;11.46;100.00;101464.81;5031207;28;20127;-68
2023/07/18 00:45:11;;;;;;;7.18;2.70;;;12.60;99.90;;;11.48;100.00;101464.75;5012014;28;20522;-69
2023/07/18 00:47:40;;;;;;;8.02;3.05;;;12.50;99.90;;;11.49;100.00;101458.56;5041222;28;20041;-68
2023/07/18 00:50:20;;;;;;;10.23;3.53;;;12.50;99.90;;;11.50;100.00;101465.56;5029752;28;20032;-68
2023/07/18 00:52:52;;;;;;;9.13;2.83;;;12.50;99.90;;;11.48;100.00;101468.25;5030793;28;20123;-68
2023/07/18 00:55:18;;;;;;;8.75;3.25;;;12.50;99.90;;;11.49;100.00;101463.84;5027520;28;20044;-68
2023/07/18 00:57:46;;;;;;;13.77;3.42;;;12.50;99.90;;;11.49;100.00;101466.50;5013823;28;20053;-68
2023/07/18 01:00:14;;;;;;;14.88;3.42;;;12.50;99.90;;;11.48;100.00;101459.47;5030224;28;20033;-68
2023/07/18 01:02:45;;;;;;;10.10;2.92;;;12.50;99.90;;;11.48;100.00;101462.13;5027573;28;20044;-68
2023/07/18 01:05:16;;;;;;;17.05;3.95;;;12.50;99.90;;;11.46;100.00;101462.16;5030058;28;20037;-69
2023/07/18 01:07:44;;;;;;;11.70;3.50;;;12.50;99.90;;;11.46;100.00;101462.16;5031017;28;20029;-68
2023/07/18 01:10:26;;;;;;;15.88;3.22;;;12.50;99.90;;;11.47;100.00;101463.06;5030790;28;20033;-68
2023/07/18 01:12:58;;;;;;;15.68;3.45;;;12.50;99.90;;;11.45;100.00;101459.63;5028085;28;20063;-68
2023/07/18 01:15:26;;;;;;;19.30;3.40;;;12.50;99.90;;;11.44;100.00;101461.38;5039874;28;20400;-69
2023/07/18 01:17:52;;;;;;;18.25;3.40;;;12.50;99.90;;;11.45;100.00;101455.19;5029534;28;20593;-68
2023/07/18 01:20:26;;;;;;;10.38;3.28;;;12.50;99.90;;;11.45;100.00;101460.47;5038270;28;20505;-68
2023/07/18 01:22:58;;;;;;;13.68;3.10;;;12.50;99.90;;;11.45;100.00;101457.81;5021526;28;20053;-69
2023/07/18 01:25:24;;;;;;;7.43;3.22;;;12.50;99.90;;;11.44;100.00;101456.09;5030068;28;20565;-69
2023/07/18 01:27:54;;;;;;;11.45;2.70;;;12.50;99.90;;;11.44;100.00;101461.38;5018529;28;20029;-68
2023/07/18 01:30:24;;;;;;;15.50;3.33;;;12.50;99.90;;;11.42;100.00;101455.28;5029366;28;20060;-68
2023/07/18 01:32:52;;;;;;;8.75;3.03;;;12.50;99.90;;;11.39;100.00;101459.84;5030203;28;20028;-68
2023/07/18 01:35:20;;;;;;;14.77;3.10;;;12.40;99.90;;;11.38;100.00;101458.09;5040305;28;20044;-68
2023/07/18 01:37:48;;;;;;;17.60;3.45;;;12.40;99.90;;;11.35;100.00;101460.88;5031404;28;20075;-69
2023/07/18 01:40:19;;;;;;;15.88;3.08;;;12.40;99.90;;;11.33;100.00;101465.34;5029406;28;20040;-68
2023/07/18 01:42:48;;;;;;;21.15;3.20;;;12.40;99.90;;;11.31;100.00;101459.28;5027736;28;20134;-68
2023/07/18 01:45:14;;;;;;;14.43;3.22;;;12.30;99.90;;;11.27;100.00;101456.75;5028799;28;20037;-69
2023/07/18 01:47:41;;;;;;;11.23;3.80;;;12.40;99.90;;;11.25;100.00;101449.81;5040165;28;20096;-69
2023/07/18 01:50:08;;;;;;;14.60;3.92;;;12.30;99.90;;;11.21;100.00;101453.47;5031435;28;20033;-68
2023/07/18 01:52:34;;;;;;;11.98;4.03;;;12.30;99.90;;;11.18;100.00;101451.81;5027297;28;20102;-68
2023/07/18 01:55:03;;;;;;;15.93;4.55;;;12.20;99.90;;;11.16;100.00;101464.19;5029505;28;20489;-69
2023/07/18 01:57:35;;;;;;;14.60;4.78;;;12.20;99.90;;;11.15;100.00;101465.13;5024666;28;20029;-68
2023/07/18 02:00:03;;;;;;;20.75;4.95;;;12.20;99.90;;;11.14;100.00;101458.13;5040189;28;20052;-68
2023/07/18 02:02:29;;;;;;;14.23;4.40;;;12.20;99.90;;;11.13;100.00;101451.13;5029551;28;20033;-68
2023/07/18 02:04:58;;;;;;;13.05;4.78;;;12.20;99.90;;;11.15;100.00;101449.31;5037634;28;20098;-69
2023/07/18 02:07:25;;;;;;;19.75;5.53;;;12.20;99.90;;;11.17;100.00;101449.25;5039720;28;20045;-68
2023/07/18 02:09:51;;;;;;;12.07;4.40;;;12.30;99.90;;;11.18;100.00;101453.59;5029248;28;20064;-69
2023/07/18 02:12:17;;;;;;;17.38;5.95;;;12.30;99.90;;;11.19;100.00;101450.91;5040266;28;20126;-69
2023/07/18 02:14:43;;;;;;;15.43;4.93;;;12.30;99.90;;;11.20;100.00;101447.34;5037852;28;20064;-70
2023/07/18 02:17:09;;;;;;;;;;;12.30;99.90;;;11.19;100.00;101445.63;5028772;28;20033;-69
2023/07/18 02:19:35;;;;;;;14.73;5.38;;;12.30;99.90;;;11.17;100.00;101442.19;5028865;28;19917;-69
2023/07/18 02:22:02;;;;;;;11.02;5.28;;;12.30;99.90;;;11.19;100.00;101452.69;5011927;28;20123;-68
2023/07/18 02:24:28;;;;;;;17.55;5.30;;;12.30;99.90;;;11.21;100.00;101457.00;5038880;28;20500;-68
2023/07/18 02:26:54;;;;;;;15.88;4.97;;;12.30;99.90;;;11.26;100.00;101454.19;5028830;28;20099;-68
2023/07/18 02:29:20;;;;;;;14.55;5.20;;;12.30;99.90;;;11.29;100.00;101457.56;5038641;28;20231;-69
2023/07/18 02:31:47;;;;;;;19.13;5.70;;;12.40;99.90;;;11.31;100.00;101454.84;5028248;28;20033;-69
2023/07/18 02:34:13;;;;;;;20.02;6.20;;;12.40;99.90;;;11.35;100.00;101463.50;5013020;28;20063;-69
2023/07/18 02:36:38;;;;;;;18.10;5.97;;;12.40;99.90;;;11.38;100.00;101460.75;5040558;28;20455;-68
2023/07/18 02:39:07;;;;;;;19.33;5.70;;;12.50;99.90;;;11.38;100.00;101466.91;5028629;28;20036;-69
2023/07/18 02:41:34;;;;;;;21.90;5.97;;;12.40;99.90;;;11.41;100.00;101463.28;5039032;28;20124;-68
2023/07/18 02:44:00;;;;;;;16.83;5.20;;;12.40;99.90;;;11.42;100.00;101459.72;5039207;28;20028;-69
2023/07/18 02:46:26;;;;;;;17.60;6.20;;;12.50;99.90;;;11.44;100.00;101461.38;5034689;28;20104;-68
2023/07/18 02:48:51;;;;;;;17.73;5.57;;;12.50;99.90;;;11.45;100.00;101462.25;5028965;28;20025;-68
2023/07/18 02:51:17;;;;;;;26.20;6.05;;;12.50;99.90;;;11.47;100.00;101466.53;5028112;28;20024;-69
2023/07/18 02:53:43;;;;;;;17.85;5.97;;;12.50;99.90;;;11.49;100.00;101464.72;5027497;28;20033;-68
2023/07/18 02:56:09;;;;;;;16.25;4.80;;;12.50;99.90;;;11.52;100.00;101468.16;5039240;28;20511;-68
2023/07/18 02:58:35;;;;;;;13.23;5.28;;;12.60;99.90;;;11.53;100.00;101468.06;5038906;28;20064;-69
2023/07/18 03:01:03;;;;;;;20.73;5.72;;;12.60;99.90;;;11.57;100.00;101471.44;5038896;28;20123;-70
2023/07/18 03:03:29;;;;;;;20.63;6.03;;;12.60;99.90;;;11.60;100.00;101471.34;5038799;28;20448;-69
2023/07/18 03:05:56;;;;;;;16.35;5.03;;;12.60;99.90;;;11.63;100.00;101471.22;5039505;28;20041;-68
2023/07/18 03:08:22;;;;;;;16.33;5.35;;;12.70;99.90;;;11.67;100.00;101476.31;5037626;28;20086;-68
2023/07/18 03:10:49;;;;;;;18.15;5.50;;;12.70;99.90;;;11.70;100.00;101476.22;5028682;28;20041;-69
2023/07/18 03:13:15;;;;;;;20.70;4.85;;;12.70;99.90;;;11.75;100.00;101475.13;5028430;28;20037;-68
2023/07/18 03:15:42;;;;;;;17.52;4.88;;;12.70;99.90;;;11.78;100.00;101469.75;5024966;28;20522;-69
2023/07/18 03:18:08;;;;;;;21.88;5.38;;;12.80;99.90;;;11.83;100.00;101470.41;5040775;28;20500;-69
2023/07/18 03:20:34;;;;;;;18.77;5.85;;;12.80;99.90;;;11.85;100.00;101464.16;5032030;28;20044;-69
2023/07/18 03:23:01;;;;;;;14.57;5.15;;;12.90;99.90;;;11.92;100.00;101479.78;5032848;28;20174;-68
2023/07/18 03:25:27;;;;;;;16.17;5.03;;;12.90;99.90;;;11.96;100.00;101484.88;5043434;28;20526;-68
2023/07/18 03:27:53;;;;;;;17.40;5.35;;;12.90;99.90;;;12.03;100.00;101481.09;5059456;23;20513;-72
2023/07/18 03:30:20;;;;;;;17.95;5.15;;;13.00;99.90;;;12.08;100.00;101472.97;5024083;28;20051;-72
2023/07/18 03:32:45;;;;;;;20.10;5.10;;;13.10;99.90;;;12.14;100.00;101478.00;5009197;28;20088;-72
2023/07/18 03:35:14;;;;;;;21.15;4.78;;;13.10;99.90;;;12.22;100.00;101480.31;4993048;28;20671;-73
2023/07/18 03:37:40;;;;;;;16.90;4.47;;;13.20;99.90;;;12.29;100.00;101481.78;5027264;28;20183;-72
2023/07/18 03:40:07;;;;;;;19.83;4.65;;;13.30;99.90;;;12.37;100.00;101484.94;5025090;28;20048;-71
2023/07/18 03:42:33;;;;;;;19.80;5.18;;;13.30;99.90;;;12.44;100.00;101474.97;5006869;28;20049;-71
2023/07/18 03:44:59;;;;;;;18.90;4.68;;;13.40;99.90;;;12.52;100.00;101479.00;5016305;28;20065;-72
2023/07/18 03:47:25;;;;;;;17.58;4.60;;;13.40;99.90;;;12.60;100.00;101480.50;5005516;28;20103;-72
2023/07/18 03:49:51;;;;;;;22.50;5.10;;;13.60;99.90;;;12.71;100.00;101484.38;5005744;28;20033;-73
2023/07/18 03:52:17;;;;;;;25.35;5.28;;;13.70;99.90;;;12.84;100.00;101484.69;5035034;28;20056;-72
2023/07/18 03:54:44;;;;;;;20.05;5.07;;;13.80;99.90;;;12.97;100.00;101477.09;5023886;28;20025;-73
2023/07/18 03:57:14;;;;;;;19.90;4.78;;;14.30;99.90;;;13.55;100.00;101486.81;5004350;28;20586;-72
2023/07/18 03:59:39;;;;;;;16.45;4.15;;;15.20;99.90;;;14.66;100.00;101489.34;5021940;28;20039;-72
2023/07/18 04:02:06;;;;;;;14.05;3.70;;;16.60;99.90;;;16.17;99.23;101485.50;5014335;28;20049;-72
2023/07/18 04:04:31;;;;;;;14.18;3.67;;;18.00;99.90;;;17.72;89.01;101492.97;5035397;28;20536;-73
2023/07/18 04:06:57;;;;;;;12.65;3.65;;;19.30;99.90;;;19.18;79.45;101497.38;5005406;28;20045;-73
2023/07/18 04:09:23;;;;;;;;;;;19.40;99.90;;;20.42;73.13;101502.63;5022203;28;20495;-74
2023/07/18 04:11:49;;;;;;;12.15;3.22;;;21.50;99.90;;;21.45;68.30;101503.56;5015513;28;20012;-73
2023/07/18 04:14:15;;;;;;;12.20;3.13;;;22.40;99.90;;;22.35;64.78;101509.66;5021818;28;20045;-72
2023/07/18 04:16:41;;;;;;;;;;;22.40;99.90;;;23.10;62.40;101516.69;5014858;28;20107;-73
2023/07/18 04:19:08;;;;;;;8.38;3.25;;;23.80;99.90;;;23.80;59.81;101520.34;5005350;28;19931;-73
2023/07/18 04:21:34;;;;;;;12.47;3.50;;;24.30;99.90;;;24.39;58.31;101521.25;4992954;28;20088;-73
2023/07/18 04:24:00;;;;;;;19.88;3.33;;;24.80;99.90;;;24.93;56.27;101540.47;5006064;28;20285;-74
2023/07/18 04:26:26;;;;;;;10.82;3.00;;;25.20;99.90;;;25.37;54.65;101543.47;5011903;28;20037;-73
2023/07/18 04:28:52;;;;;;;10.93;3.17;;;25.60;99.90;;;25.84;53.44;101556.00;5001183;28;20037;-73
2023/07/18 04:31:17;;;;;;;14.30;3.13;;;25.90;99.90;;;26.22;52.41;101557.63;5032900;28;20468;-73
2023/07/18 04:33:43;;;;;;;12.77;3.03;;;26.30;99.90;;;26.85;51.04;101559.38;4997551;28;20405;-73
2023/07/18 04:36:09;;;;;;;;;;;26.30;99.90;;;27.67;49.60;101567.94;5010154;28;20041;-73
2023/07/18 04:38:35;;;;;;;15.25;3.25;;;27.20;98.90;;;28.03;48.19;101578.56;5029687;28;20517;-72
2023/07/18 04:41:05;;;;;;;10.18;3.20;;;27.40;98.10;;;28.36;47.26;101586.78;5008749;28;20507;-73
2023/07/18 04:43:31;;;;;;;11.20;3.33;;;27.70;97.60;;;28.71;46.34;101598.31;5005155;28;20040;-73
2023/07/18 04:45:56;;;;;;;8.07;2.75;;;28.10;97.10;;;29.32;45.56;101610.47;5006728;28;20400;-72
2023/07/18 04:48:22;;;;;;;12.93;3.03;;;28.40;97.00;;;29.96;44.50;101615.84;4994341;28;20048;-73
2023/07/18 04:50:55;;;;;;;;;;;28.40;96.90;;;30.71;43.02;101625.19;5015846;28;20036;-72
2023/07/18 04:53:21;;;;;;;10.77;2.90;;;29.30;95.30;;;31.25;41.96;101629.66;5044663;28;19990;-73
2023/07/18 04:55:51;;;;;;;8.25;2.83;;;29.80;95.40;;;32.05;40.86;101628.94;5005921;28;20049;-73
2023/07/18 04:58:19;;;;;;;10.13;2.78;;;30.30;94.40;;;32.62;39.79;101638.13;5012312;28;20492;-73
2023/07/18 05:00:45;;;;;;;11.70;2.90;;;30.80;93.70;;;33.06;38.88;101633.47;5004793;28;20029;-72
2023/07/18 05:03:11;;;;;;;9.10;2.78;;;31.10;92.30;;;33.54;37.59;101652.69;5033802;28;20120;-73
2023/07/18 05:05:36;;;;;;;9.23;2.80;;;31.50;91.80;;;33.90;37.12;101648.91;5020987;28;20682;-73
2023/07/18 05:08:03;;;;;;;14.35;2.97;;;31.70;91.10;;;34.09;36.37;101659.09;5004989;28;20045;-74
2023/07/18 05:10:29;;;;;;;12.57;2.95;;;31.90;91.30;;;34.52;36.07;101675.22;5010462;28;20044;-72
2023/07/18 05:12:56;;;;;;;12.48;2.95;;;32.20;90.80;;;34.90;35.27;101673.78;5003978;28;20049;-72
2023/07/18 05:15:22;;;;;;;10.48;2.58;;;32.50;90.00;;;35.28;34.55;101698.66;5013018;28;20052;-72
2023/07/18 05:17:49;;;;;;;10.90;3.03;;;32.80;89.80;;;35.71;33.90;101706.41;5005978;28;20332;-73
2023/07/18 05:20:15;;;;;;;10.00;2.60;;;33.00;88.90;;;35.82;33.34;101701.31;5014765;28;20672;-73
2023/07/18 05:22:43;;;;;;;11.18;2.55;;;33.10;88.80;;;36.19;33.03;101709.84;5010885;28;20072;-73
2023/07/18 05:25:13;;;;;;;12.43;2.72;;;33.30;87.50;;;36.34;32.76;101722.19;5010821;28;20041;-72
2023/07/18 05:27:40;;;;;;;9.23;2.45;;;33.40;87.00;;;36.49;32.51;101732.88;5006399;28;20064;-73
2023/07/18 05:30:16;;;;;;;8.40;2.85;;;33.50;87.40;;;36.56;32.63;101732.81;4997499;28;20045;-72
2023/07/18 05:32:43;;;;;;;12.80;2.88;;;33.70;86.10;;;36.86;31.94;101733.09;4993159;28;20085;-73
2023/07/18 05:35:11;;;;;;;13.50;2.70;;;33.80;83.60;;;36.82;31.73;101733.75;5014182;28;20041;-73
2023/07/18 05:37:40;;;;;;;6.28;2.50;;;33.80;84.20;;;36.95;31.17;101739.97;5005817;28;20385;-72
2023/07/18 05:40:09;;;;;;;7.20;2.50;;;33.90;83.20;;;37.14;31.20;101745.56;5021492;28;20063;-72
2023/07/18 05:42:36;;;;;;;18.20;2.95;;;34.10;83.20;;;37.32;30.50;101740.16;5000064;28;20044;-73
2023/07/18 05:45:03;;;;;;;10.05;3.13;;;34.10;81.50;;;36.64;31.21;101731.78;5030928;28;20076;-72
2023/07/18 05:47:31;;;;;;;10.48;3.13;;;33.90;82.00;;;36.21;31.88;101737.88;4999583;28;20030;-73
2023/07/18 05:49:56;;;;;;;7.40;2.53;;;33.80;82.80;;;36.75;31.24;101739.28;5015808;28;20036;-73
2023/07/18 05:52:22;;;;;;;8.25;2.88;;;34.00;83.30;;;37.41;30.58;101748.06;4988165;28;20037;-73
2023/07/18 05:54:49;;;;;;;9.70;2.90;;;34.40;81.40;;;37.57;29.98;101747.53;5030249;28;20120;-72
2023/07/18 05:57:15;;;;;;;8.45;2.75;;;34.60;81.00;;;38.01;30.03;101762.03;5006117;28;20548;-72
2023/07/18 05:59:41;;;;;;;8.00;2.55;;;35.00;80.00;;;38.23;29.98;101756.97;5034100;28;20048;-72
2023/07/18 06:02:07;;;;;;;7.32;2.60;;;35.40;79.50;;;38.51;28.79;101761.91;5002321;28;20516;-72
2023/07/18 06:04:35;;;;;;;7.13;2.65;;;35.70;79.00;;;38.56;28.94;101767.53;5016526;28;20056;-72
2023/07/18 06:07:01;;;;;;;7.13;2.85;;;35.90;78.60;;;38.74;29.06;101769.38;5006175;28;20033;-73
2023/07/18 06:09:26;;;;;;;7.70;2.75;;;36.20;78.00;;;38.87;29.18;101775.75;5017897;28;20044;-72
2023/07/18 06:11:53;;;;;;;10.20;3.28;;;36.40;76.90;;;38.91;28.91;101775.06;5014060;28;20025;-73
2023/07/18 06:14:19;;;;;;;7.32;2.45;;;36.50;76.20;;;38.67;28.60;101767.81;5011433;28;20394;-72
2023/07/18 06:16:46;;;;;;;9.40;2.83;;;36.50;77.10;;;37.97;29.63;101747.06;5021740;28;20143;-72
2023/07/18 06:19:12;;;;;;;6.90;3.08;;;36.00;75.00;;;36.60;30.71;101736.00;5013035;28;20048;-73
2023/07/18 06:21:39;;;;;;;9.50;2.60;;;35.80;75.50;;;36.93;30.42;101724.78;5008950;28;20082;-73
2023/07/18 06:24:05;;;;;;;8.52;2.72;;;35.40;77.50;;;36.65;31.09;101717.81;5014184;28;20029;-73
2023/07/18 06:26:31;;;;;;;7.35;2.55;;;35.40;77.20;;;36.79;30.29;101715.84;5022130;28;20092;-72
2023/07/18 06:28:57;;;;;;;11.10;2.88;;;35.40;77.50;;;36.66;30.93;101711.28;5030849;28;20033;-72
2023/07/18 06:31:23;;;;;;;10.55;3.28;;;35.20;77.80;;;36.12;32.17;101705.22;5010641;28;20036;-72
2023/07/18 06:33:49;;;;;;;11.43;2.92;;;34.90;76.90;;;35.44;32.00;101688.31;4982926;28;20033;-72
2023/07/18 06:36:15;;;;;;;14.52;3.00;;;34.50;76.80;;;34.54;33.14;101683.22;5029401;28;20065;-72
2023/07/18 06:38:43;;;;;;;14.85;2.53;;;33.90;78.70;;;34.17;34.02;101659.97;4998167;28;20051;-73
2023/07/18 06:41:09;;;;;;;12.70;2.67;;;33.70;80.40;;;34.01;34.03;101669.34;5019068;28;20033;-73
2023/07/18 06:43:35;;;;;;;6.65;2.55;;;33.50;78.80;;;34.45;33.29;101665.28;5003592;28;20051;-72
2023/07/18 06:46:01;;;;;;;7.93;2.70;;;33.50;79.80;;;34.60;33.56;101670.59;5025269;28;20060;-73
2023/07/18 06:48:26;;;;;;;7.13;2.80;;;33.80;80.10;;;35.09;33.36;101663.91;4998203;28;20109;-73
2023/07/18 06:50:56;;;;;;;9.82;2.35;;;34.00;79.60;;;34.91;34.04;101662.66;5015882;28;20116;-72
2023/07/18 06:53:22;;;;;;;9.88;2.85;;;34.50;79.20;;;35.98;32.37;101680.81;5016176;28;20512;-73
2023/07/18 06:55:49;;;;;;;9.60;2.60;;;35.00;78.30;;;36.43;31.31;101681.63;5029842;28;20369;-72
2023/07/18 06:58:18;;;;;;;7.28;2.47;;;35.50;77.90;;;36.23;31.69;101678.19;5020362;28;20033;-72
2023/07/18 07:00:46;;;;;;;8.05;2.38;;;35.20;75.60;;;35.31;32.56;101667.28;5019364;28;20079;-72
2023/07/18 07:03:13;;;;;;;9.20;2.75;;;34.80;76.40;;;34.32;33.46;101652.44;4983047;28;20049;-73
2023/07/18 07:05:43;;;;;;;8.75;2.53;;;34.30;75.80;;;33.71;33.86;101642.31;5037897;28;20053;-73
2023/07/18 07:08:10;;;;;;;6.97;2.47;;;33.40;76.70;;;32.29;35.41;101619.56;5020631;28;20037;-72
2023/07/18 07:10:37;;;;;;;12.27;2.33;;;32.60;79.70;;;31.76;36.89;101607.16;5016006;28;20041;-71
2023/07/18 07:13:03;;;;;;;11.00;2.83;;;32.00;80.60;;;31.54;36.71;101603.53;5009976;28;20103;-72
2023/07/18 07:15:30;;;;;;;15.80;2.55;;;31.70;80.10;;;31.37;36.68;101609.13;5015320;28;20112;-71
2023/07/18 07:17:56;;;;;;;9.68;2.92;;;31.70;81.30;;;31.73;36.83;101610.25;5034802;28;20403;-73
2023/07/18 07:20:24;;;;;;;6.78;2.47;;;31.60;81.80;;;31.57;36.80;101603.97;5016371;28;20037;-72
2023/07/18 07:22:52;;;;;;;7.72;2.67;;;31.50;81.00;;;31.38;36.88;101607.25;5024811;28;20068;-73
2023/07/18 07:25:19;;;;;;;10.65;2.30;;;31.40;82.70;;;31.46;36.96;101607.19;5017074;28;20037;-72
2023/07/18 07:27:46;;;;;;;8.32;2.42;;;31.20;84.30;;;31.22;38.04;101605.56;4987076;28;20120;-73
2023/07/18 07:30:15;;;;;;;8.48;2.22;;;31.40;82.50;;;31.63;36.95;101599.66;5015315;28;20040;-73
2023/07/18 07:32:47;;;;;;;7.03;2.38;;;31.50;81.50;;;31.45;36.75;101589.19;5006443;28;20538;-73
2023/07/18 07:35:16;;;;;;;7.43;2.28;;;31.50;83.20;;;31.72;37.51;101595.81;5017717;28;20033;-73
2023/07/18 07:37:42;;;;;;;7.55;2.05;;;31.50;84.10;;;31.00;37.63;101586.41;4991564;28;20060;-73
2023/07/18 07:40:11;;;;;;;10.77;1.92;;;31.00;82.60;;;30.46;38.60;101579.22;5033532;28;20113;-73
2023/07/18 07:42:38;;;;;;;10.27;2.30;;;30.40;81.60;;;29.54;39.37;101567.31;5014363;28;20040;-72
2023/07/18 07:45:05;;;;;;;6.45;2.50;;;29.90;84.10;;;29.34;39.95;101558.75;5016857;28;20029;-72
2023/07/18 07:47:31;;;;;;;6.63;2.30;;;29.40;83.90;;;28.84;40.37;101558.00;5009145;28;20033;-73
2023/07/18 07:49:57;;;;;;;3.67;1.50;;;29.10;85.70;;;28.73;40.98;101553.78;5016654;28;20504;-72
2023/07/18 07:52:23;;;;;;;7.10;2.30;;;29.20;86.80;;;29.37;40.36;101563.81;5016339;28;20041;-73
2023/07/18 07:54:49;;;;;;;9.65;2.00;;;29.50;85.30;;;29.71;39.60;101566.25;5005398;28;20108;-73
2023/07/18 07:57:15;;;;;;;6.03;2.00;;;29.70;84.30;;;29.93;38.69;101564.59;5015246;28;20123;-73
2023/07/18 07:59:43;;;;;;;5.35;2.00;;;29.80;83.10;;;29.81;38.64;101574.19;5021750;28;20047;-72
2023/07/18 08:02:09;;;;;;;9.75;2.40;;;29.70;84.20;;;29.82;39.35;101570.44;5017762;28;20041;-72
2023/07/18 08:04:36;;;;;;;9.70;2.20;;;29.60;84.30;;;29.26;39.99;101556.91;4992215;28;20371;-72
2023/07/18 08:07:03;;;;;;;7.10;1.98;;;29.30;85.10;;;29.16;40.29;101561.69;5014750;28;20078;-73
2023/07/18 08:09:29;;;;;;;6.93;2.17;;;29.20;85.90;;;29.23;40.35;101555.38;5034922;28;20033;-72
2023/07/18 08:11:57;;;;;;;4.70;2.35;;;29.30;87.40;;;29.55;40.02;101564.44;5001994;28;20078;-72
2023/07/18 08:14:23;;;;;;;7.72;2.10;;;29.30;84.20;;;29.11;39.70;101562.19;5011709;28;20091;-73
2023/07/18 08:16:49;;;;;;;10.82;2.00;;;29.40;81.80;;;29.55;37.84;101574.44;5036124;28;20115;-72
2023/07/18 08:19:15;;;;;;;3.67;1.60;;;29.50;81.80;;;29.81;37.39;101579.63;5016576;28;20021;-72
2023/07/18 08:21:41;;;;;;;6.15;1.60;;;29.50;80.30;;;29.54;37.66;101586.31;5034257;28;20041;-72
2023/07/18 08:24:07;;;;;;;9.00;1.58;;;29.20;81.60;;;28.80;38.48;101570.19;5018733;28;20044;-72
2023/07/18 08:26:33;;;;;;;3.20;1.33;;;28.90;78.70;;;28.51;37.22;101568.00;5037150;28;20033;-72
2023/07/18 08:28:59;;;;;;;4.38;1.40;;;28.80;80.30;;;28.58;37.59;101572.56;5032363;28;20040;-72
2023/07/18 08:31:25;;;;;;;6.85;1.90;;;28.50;82.90;;;28.35;38.55;101563.38;5019719;28;20078;-72
2023/07/18 08:33:51;;;;;;;5.28;1.35;;;28.40;80.50;;;28.06;38.52;101563.88;5001677;28;20483;-72
2023/07/18 08:36:17;;;;;;;5.43;1.60;;;27.90;80.90;;;27.32;39.86;101541.91;5018505;28;20507;-72
2023/07/18 08:38:49;;;;;;;5.68;1.85;;;27.40;82.20;;;26.58;40.59;101542.25;5001999;28;20032;-72
2023/07/18 08:41:19;;;;;;;4.45;1.38;;;27.00;83.10;;;26.13;41.54;101526.16;5016821;28;20178;-72
2023/07/18 08:43:46;;;;;;;3.85;1.38;;;26.40;83.20;;;25.23;42.55;101507.06;5021283;28;20074;-73
2023/07/18 08:46:14;;;;;;;5.65;1.48;;;26.00;84.20;;;25.10;42.61;101506.53;5017242;28;20688;-72
2023/07/18 08:48:44;;;;;;;2.95;1.00;;;25.60;85.80;;;24.76;43.78;101490.88;5035851;28;20041;-72
2023/07/18 08:51:12;;;;;;;8.68;1.70;;;25.50;85.40;;;24.93;42.58;101502.75;4986645;28;20740;-72
2023/07/18 08:53:43;;;;;;;5.13;1.35;;;25.50;85.30;;;25.16;42.75;101512.19;5028428;28;20037;-71
2023/07/18 08:56:10;;;;;;;3.20;1.35;;;25.60;86.30;;;25.27;42.84;101513.88;5014462;28;20088;-72
2023/07/18 08:58:37;;;;;;;5.70;1.42;;;25.70;86.40;;;25.17;43.22;101511.16;5007689;28;20029;-72
2023/07/18 09:01:08;;;;;;;4.63;1.50;;;25.70;86.30;;;25.46;42.78;101510.22;5019828;28;20052;-73
2023/07/18 09:03:35;;;;;;;5.93;1.50;;;25.80;88.70;;;25.66;43.52;101504.72;5020500;28;20115;-72
2023/07/18 09:06:19;;;;;;;5.68;1.20;;;25.90;86.10;;;25.61;41.55;101509.72;5017583;28;20061;-72
2023/07/18 09:08:49;;;;;;;7.28;1.23;;;25.90;86.00;;;25.54;42.00;101507.63;4996241;28;20030;-73
2023/07/18 09:11:19;;;;;;;4.82;1.00;;;25.90;85.20;;;25.31;42.64;101498.22;4996010;28;20044;-72
2023/07/18 09:13:48;;;;;;;4.18;1.20;;;25.90;86.20;;;25.47;41.70;101501.13;5016196;28;20083;-73
2023/07/18 09:16:25;;;;;;;6.95;1.60;;;25.90;83.50;;;25.33;41.70;101502.47;5008927;28;20405;-72
2023/07/18 09:18:54;;;;;;;2.42;1.10;;;25.90;86.00;;;25.37;42.06;101498.47;5000741;28;20096;-73
2023/07/18 09:21:27;;;;;;;2.72;1.20;;;25.90;86.10;;;25.58;42.33;101505.47;5008123;28;20040;-73
2023/07/18 09:23:58;;;;;;;3.95;1.30;;;26.10;85.60;;;25.87;42.65;101496.34;5018014;28;20052;-72
2023/07/18 09:26:27;;;;;;;2.50;1.10;;;26.20;84.40;;;25.68;42.23;101497.31;5036345;28;20464;-73
2023/07/18 09:28:56;;;;;;;3.17;1.33;;;26.00;85.30;;;25.22;42.69;101488.34;5020911;28;20041;-71
2023/07/18 09:31:26;;;;;;;1.90;0.98;;;25.90;84.30;;;25.13;42.56;101488.22;5033847;28;20082;-72
2023/07/18 09:33:54;;;;;;;3.28;1.40;;;25.70;85.40;;;24.99;42.83;101483.31;5005760;28;20052;-73
2023/07/18 09:36:23;;;;;;;5.22;1.35;;;25.70;87.40;;;25.28;43.50;101485.91;5020087;28;20052;-73
2023/07/18 09:38:50;;;;;;;3.53;1.10;;;25.80;88.00;;;25.58;43.27;101490.13;5017291;28;20625;-72
2023/07/18 09:41:24;;;;;;;3.08;1.10;;;26.00;86.40;;;25.59;42.38;101493.69;5016601;28;20080;-72
2023/07/18 09:43:56;;;;;;;2.80;1.10;;;26.00;85.40;;;25.37;42.64;101487.69;5019733;28;20045;-72
2023/07/18 09:46:23;;;;;;;2.83;1.10;;;25.90;84.40;;;25.36;42.41;101494.09;5017390;28;20067;-73
2023/07/18 09:48:49;;;;;;;5.30;1.10;;;25.90;85.20;;;25.46;41.99;101493.19;5025620;28;20037;-72
2023/07/18 09:51:21;;;;;;;3.25;1.23;;;25.90;83.90;;;25.55;41.79;101503.94;5015491;28;20585;-72
2023/07/18 09:53:51;;;;;;;3.45;1.20;;;26.00;83.90;;;25.77;40.82;101499.13;5023797;28;20115;-72
2023/07/18 09:56:17;;;;;;;2.10;1.02;;;26.20;84.90;;;26.04;40.98;101503.63;5007874;28;20037;-72
2023/07/18 09:58:46;;;;;;;6.45;1.13;;;26.50;85.10;;;26.43;40.78;101507.84;5016070;28;20029;-73
2023/07/18 10:01:26;;;;;;;6.13;1.40;;;26.70;84.70;;;26.64;40.75;101512.94;5016770;28;20037;-73
2023/07/18 10:03:55;;;;;;;3.55;1.27;;;26.90;83.50;;;26.54;40.53;101511.16;5017230;28;20104;-72
2023/07/18 10:06:31;;;;;;;5.65;1.52;;;27.00;84.00;;;26.55;40.71;101512.00;5024788;28;20042;-74
2023/07/18 10:08:59;;;;;;;2.65;1.30;;;27.00;84.00;;;26.59;41.47;101516.13;4995109;28;20033;-72